createdAt,value
2018-07-12T00:01:54.208Z,95698.62
2018-07-12T00:04:22.682Z,95699.20
2018-07-12T00:06:50.396Z,95697.06
2018-07-12T00:09:18.138Z,95694.33
2018-07-12T00:11:45.938Z,95696.23
2018-07-12T00:14:13.794Z,95693.29
2018-07-12T00:16:41.526Z,95695.99
2018-07-12T00:19:09.298Z,95691.42
2018-07-12T00:21:37.034Z,95693.84
2018-07-12T00:24:04.781Z,95695.80
2018-07-12T00:26:32.526Z,95694.47
2018-07-12T00:29:00.285Z,95697.45
2018-07-12T00:31:28.030Z,95696.18
2018-07-12T00:33:55.750Z,95692.16
2018-07-12T00:36:23.481Z,95692.73
2018-07-12T00:38:51.228Z,95693.50
2018-07-12T00:41:19.005Z,95693.78
2018-07-12T00:43:46.776Z,95687.27
2018-07-12T00:46:14.534Z,95691.03
2018-07-12T00:48:42.291Z,95686.56
2018-07-12T00:51:10.045Z,95690.83
2018-07-12T00:53:37.881Z,95687.30
2018-07-12T00:56:05.612Z,95686.52
2018-07-12T00:58:33.354Z,95693.73
2018-07-12T01:01:01.148Z,95691.84
2018-07-12T01:03:28.869Z,95694.84
2018-07-12T01:05:56.641Z,95699.98
2018-07-12T01:08:24.405Z,95696.25
2018-07-12T01:10:52.130Z,95703.75
2018-07-12T01:13:19.855Z,95690.88
2018-07-12T01:15:47.656Z,95691.12
2018-07-12T01:18:15.381Z,95684.09
2018-07-12T01:20:43.131Z,95682.48
2018-07-12T01:23:10.948Z,95686.01
2018-07-12T01:25:38.678Z,95678.99
2018-07-12T01:28:06.447Z,95681.92
2018-07-12T01:30:34.190Z,95680.55
2018-07-12T01:33:02.264Z,95682.41
2018-07-12T01:35:29.973Z,95687.50
2018-07-12T01:37:57.717Z,95685.09
2018-07-12T01:40:25.459Z,95675.91
2018-07-12T01:42:53.439Z,95669.16
2018-07-12T01:45:21.301Z,95674.58
2018-07-12T01:47:49.087Z,95664.34
2018-07-12T01:50:16.871Z,95667.52
2018-07-12T01:52:45.095Z,95663.52
2018-07-12T01:55:12.854Z,95675.08
2018-07-12T01:57:40.578Z,95669.71
2018-07-12T02:00:08.334Z,95665.98
2018-07-12T02:02:36.110Z,95667.62
2018-07-12T02:05:03.861Z,95664.72
2018-07-12T02:07:31.598Z,95665.03
2018-07-12T02:09:59.647Z,95664.50
2018-07-12T02:12:27.390Z,95670.19
2018-07-12T02:14:55.129Z,95672.05
2018-07-12T02:17:22.854Z,95673.70
2018-07-12T02:19:50.581Z,95668.89
2018-07-12T02:22:18.420Z,95669.99
2018-07-12T02:24:46.169Z,95660.05
2018-07-12T02:27:13.951Z,95654.16
2018-07-12T02:29:41.750Z,95660.64
2018-07-12T02:32:09.505Z,95655.49
2018-07-12T02:34:37.259Z,95652.75
2018-07-12T02:37:05.042Z,95652.80
2018-07-12T02:39:32.793Z,95648.48
2018-07-12T02:42:00.540Z,95647.15
2018-07-12T02:44:28.295Z,95647.96
2018-07-12T02:46:56.025Z,95649.06
2018-07-12T02:49:23.764Z,95645.03
2018-07-12T02:51:51.614Z,95641.29
2018-07-12T02:54:19.385Z,95639.13
2018-07-12T02:56:47.167Z,95631.59
2018-07-12T02:59:14.917Z,95624.33
2018-07-12T03:01:42.663Z,95620.59
2018-07-12T03:04:10.379Z,95621.07
2018-07-12T03:06:38.169Z,95623.23
2018-07-12T03:09:07.066Z,95620.02
2018-07-12T03:11:35.159Z,95616.50
2018-07-12T03:14:02.993Z,95612.23
2018-07-12T03:16:30.871Z,95613.89
2018-07-12T03:18:58.785Z,95615.51
2018-07-12T03:21:26.588Z,95612.55
2018-07-12T03:23:54.345Z,95616.86
2018-07-12T03:26:22.724Z,95618.20
2018-07-12T03:28:50.488Z,95618.20
2018-07-12T03:31:18.235Z,95622.72
2018-07-12T03:33:45.970Z,95626.44
2018-07-12T03:36:13.722Z,95620.52
2018-07-12T03:38:41.586Z,95626.13
2018-07-12T03:41:09.319Z,95630.69
2018-07-12T03:43:37.089Z,95633.14
2018-07-12T03:46:04.915Z,95631.52
2018-07-12T03:48:32.707Z,95627.48
2018-07-12T03:51:00.426Z,95633.70
2018-07-12T03:53:28.152Z,95632.94
2018-07-12T03:55:55.913Z,95636.39
2018-07-12T03:58:23.663Z,95639.06
2018-07-12T04:00:51.686Z,95643.10
2018-07-12T04:03:19.454Z,95643.70
2018-07-12T04:05:47.232Z,95639.73
2018-07-12T04:08:15.055Z,95646.70
2018-07-12T04:10:42.805Z,95652.35
2018-07-12T04:13:10.547Z,95650.43
2018-07-12T04:15:38.274Z,95646.45
2018-07-12T04:18:06.027Z,95655.58
2018-07-12T04:20:33.769Z,95651.55
2018-07-12T04:23:01.521Z,95644.82
2018-07-12T04:25:29.288Z,95653.22
2018-07-12T04:27:57.037Z,95651.31
2018-07-12T04:30:24.766Z,95642.71
2018-07-12T04:32:52.513Z,95649.70
2018-07-12T04:35:20.333Z,95642.95
2018-07-12T04:37:48.117Z,95644.34
2018-07-12T04:40:15.867Z,95644.58
2018-07-12T04:42:43.622Z,95652.93
2018-07-12T04:45:11.396Z,95651.05
2018-07-12T04:47:39.160Z,95638.38
2018-07-12T04:50:06.902Z,95639.97
2018-07-12T04:52:35.936Z,95644.52
2018-07-12T04:55:03.654Z,95642.11
2018-07-12T04:57:31.418Z,95642.40
2018-07-12T04:59:59.150Z,95650.20
2018-07-12T05:02:28.443Z,95653.11
2018-07-12T05:04:56.176Z,95655.21
2018-07-12T05:07:23.934Z,95654.14
2018-07-12T05:09:51.667Z,95663.73
2018-07-12T05:12:19.751Z,95661.86
2018-07-12T05:14:47.503Z,95659.70
2018-07-12T05:17:15.383Z,95651.33
2018-07-12T05:19:43.187Z,95647.75
2018-07-12T05:22:10.933Z,95654.22
2018-07-12T05:24:38.672Z,95658.70
2018-07-12T05:27:06.554Z,95667.62
2018-07-12T05:29:34.285Z,95667.69
2018-07-12T05:32:02.020Z,95674.34
2018-07-12T05:34:29.773Z,95672.16
2018-07-12T05:37:01.159Z,95672.39
2018-07-12T05:39:30.615Z,95672.59
2018-07-12T05:41:59.999Z,95675.81
2018-07-12T05:44:35.649Z,95670.91
2018-07-12T05:47:05.116Z,95675.73
2018-07-12T05:49:34.707Z,95682.11
2018-07-12T05:52:04.066Z,95681.07
2018-07-12T05:54:33.419Z,95679.65
2018-07-12T05:57:02.807Z,95677.23
2018-07-12T05:59:32.271Z,95680.42
2018-07-12T06:02:14.486Z,95678.37
2018-07-12T06:04:43.840Z,95689.42
2018-07-12T06:07:13.360Z,95678.87
2018-07-12T06:09:42.827Z,95681.27
2018-07-12T06:12:12.372Z,95683.88
2018-07-12T06:14:41.877Z,95685.97
2018-07-12T06:17:11.293Z,95686.67
2018-07-12T06:19:40.747Z,95687.55
2018-07-12T06:22:10.186Z,95687.72
2018-07-12T06:24:40.127Z,95695.98
2018-07-12T06:27:09.586Z,95689.96
2018-07-12T06:29:39.066Z,95692.95
2018-07-12T06:32:08.645Z,95689.06
2018-07-12T06:34:38.063Z,95690.67
2018-07-12T06:37:07.520Z,95697.69
2018-07-12T06:39:36.899Z,95689.17
2018-07-12T06:42:06.394Z,95689.49
2018-07-12T06:44:35.788Z,95700.23
2018-07-12T06:47:12.622Z,95695.06
2018-07-12T06:49:42.061Z,95690.98
2018-07-12T06:52:11.638Z,95699.57
2018-07-12T06:54:41.203Z,95688.83
2018-07-12T06:57:10.696Z,95689.61
2018-07-12T06:59:40.139Z,95689.47
2018-07-12T07:02:09.587Z,95698.57
2018-07-12T07:04:39.005Z,95693.45
2018-07-12T07:07:08.789Z,95689.77
2018-07-12T07:09:38.168Z,95696.19
2018-07-12T07:12:07.543Z,95686.16
2018-07-12T07:14:36.952Z,95699.42
2018-07-12T07:17:06.375Z,95689.08
2018-07-12T07:19:36.697Z,95691.33
2018-07-12T07:22:06.174Z,95696.50
2018-07-12T07:24:35.551Z,95694.88
2018-07-12T07:27:04.963Z,95697.73
2018-07-12T07:29:34.313Z,95688.64
2018-07-12T07:32:03.727Z,95688.61
2018-07-12T07:34:32.821Z,95688.56
2018-07-12T07:37:02.206Z,95697.17
2018-07-12T07:39:31.565Z,95694.52
2018-07-12T07:42:01.091Z,95695.73
2018-07-12T07:44:30.462Z,95691.20
2018-07-12T07:46:59.810Z,95694.33
2018-07-12T07:49:29.209Z,95697.95
2018-07-12T07:51:58.573Z,95692.95
2018-07-12T07:54:27.933Z,95699.41
2018-07-12T07:56:57.288Z,95700.41
2018-07-12T07:59:26.587Z,95692.80
2018-07-12T08:01:55.988Z,95694.25
2018-07-12T08:04:25.391Z,95696.59
2018-07-12T08:06:54.771Z,95696.55
2018-07-12T08:09:24.186Z,95688.81
2018-07-12T08:11:53.770Z,95687.41
2018-07-12T08:14:23.189Z,95691.27
2018-07-12T08:16:52.590Z,95690.22
2018-07-12T08:19:22.009Z,95689.84
2018-07-12T08:22:01.962Z,95708.05
2018-07-12T08:24:31.378Z,95700.05
2018-07-12T08:27:00.733Z,95696.89
2018-07-12T08:29:30.469Z,95695.44
2018-07-12T08:32:00.065Z,95697.44
2018-07-12T08:34:29.458Z,95693.13
2018-07-12T08:36:58.895Z,95686.66
2018-07-12T08:39:28.240Z,95689.00
2018-07-12T08:41:57.699Z,95700.08
2018-07-12T08:44:27.066Z,95697.36
2018-07-12T08:46:56.578Z,95695.86
2018-07-12T08:49:25.921Z,95704.38
2018-07-12T08:51:55.322Z,95705.79
2018-07-12T08:54:25.003Z,95705.19
2018-07-12T08:56:54.404Z,95694.11
2018-07-12T08:59:24.742Z,95689.59
2018-07-12T09:01:54.894Z,95701.16
2018-07-12T09:04:24.296Z,95690.14
2018-07-12T09:06:53.788Z,95697.80
2018-07-12T09:09:23.259Z,95697.73
2018-07-12T09:11:52.724Z,95694.77
2018-07-12T09:14:22.148Z,95697.59
2018-07-12T09:16:51.621Z,95694.93
2018-07-12T09:19:21.369Z,95697.75
2018-07-12T09:21:50.866Z,95691.58
2018-07-12T09:24:20.271Z,95688.67
2018-07-12T09:26:49.695Z,95693.30
2018-07-12T09:29:19.179Z,95698.34
2018-07-12T09:31:48.486Z,95700.69
2018-07-12T09:34:18.006Z,95700.08
2018-07-12T09:36:47.491Z,95698.20
2018-07-12T09:39:16.917Z,95700.89
2018-07-12T09:41:46.311Z,95701.70
2018-07-12T09:44:15.684Z,95696.52
2018-07-12T09:46:45.095Z,95701.29
2018-07-12T09:49:14.742Z,95703.85
2018-07-12T09:51:43.911Z,95701.73
2018-07-12T09:54:13.322Z,95702.14
2018-07-12T09:56:59.416Z,95698.20
2018-07-12T09:59:28.859Z,95695.63
2018-07-12T10:02:03.630Z,95696.77
2018-07-12T10:04:33.070Z,95696.92
2018-07-12T10:07:07.704Z,95707.05
2018-07-12T10:09:42.274Z,95695.39
2018-07-12T10:12:15.742Z,95703.70
2018-07-12T10:14:51.058Z,95704.66
2018-07-12T10:17:25.631Z,95703.28
2018-07-12T10:19:55.037Z,95699.41
2018-07-12T10:22:24.400Z,95703.09
2018-07-12T10:24:53.754Z,95705.88
2018-07-12T10:27:22.889Z,95706.69
2018-07-12T10:29:52.832Z,95719.89
2018-07-12T10:32:22.252Z,95712.46
2018-07-12T10:34:51.756Z,95708.28
2018-07-12T10:37:21.222Z,95709.23
2018-07-12T10:39:50.675Z,95714.92
2018-07-12T10:42:20.174Z,95718.13
2018-07-12T10:44:49.698Z,95708.86
2018-07-12T10:47:19.174Z,95705.25
2018-07-12T10:49:48.536Z,95711.95
2018-07-12T10:52:18.092Z,95708.86
2018-07-12T10:54:47.612Z,95705.26
2018-07-12T10:57:16.990Z,95707.98
2018-07-12T10:59:46.389Z,95711.88
2018-07-12T11:02:15.770Z,95714.44
2018-07-12T11:04:45.167Z,95714.84
2018-07-12T11:07:14.526Z,95717.55
2018-07-12T11:09:44.897Z,95717.31
2018-07-12T11:12:14.246Z,95709.16
2018-07-12T11:14:43.605Z,95712.45
2018-07-12T11:17:13.491Z,95711.00
2018-07-12T11:19:42.878Z,95710.92
2018-07-12T11:22:12.255Z,95712.20
2018-07-12T11:24:41.650Z,95715.48
2018-07-12T11:27:11.069Z,95714.67
2018-07-12T11:29:53.644Z,95718.45
2018-07-12T11:32:23.163Z,95711.58
2018-07-12T11:34:52.629Z,95715.66
2018-07-12T11:37:28.429Z,95713.53
2018-07-12T11:39:57.878Z,95710.52
2018-07-12T11:42:27.280Z,95712.13
2018-07-12T11:44:56.868Z,95710.70
2018-07-12T11:47:26.351Z,95715.34
2018-07-12T11:49:55.793Z,95717.23
2018-07-12T11:52:25.149Z,95712.72
2018-07-12T11:54:54.680Z,95713.91
2018-07-12T11:57:24.081Z,95709.14
2018-07-12T11:59:53.989Z,95708.44
2018-07-12T12:02:23.464Z,95705.08
2018-07-12T12:04:52.915Z,95701.45
2018-07-12T12:07:22.478Z,95706.87
2018-07-12T12:09:51.880Z,95700.27
2018-07-12T12:12:21.265Z,95706.31
2018-07-12T12:14:50.800Z,95707.16
2018-07-12T12:17:20.268Z,95704.64
2018-07-12T12:19:49.697Z,95703.60
2018-07-12T12:22:19.073Z,95705.99
2018-07-12T12:24:48.425Z,95710.70
2018-07-12T12:27:17.889Z,95710.98
2018-07-12T12:29:47.309Z,95709.42
2018-07-12T12:32:16.759Z,95715.68
2018-07-12T12:34:46.153Z,95715.17
2018-07-12T12:37:15.621Z,95713.70
2018-07-12T12:39:44.947Z,95709.22
2018-07-12T12:42:14.537Z,95707.27
2018-07-12T12:44:43.953Z,95721.12
2018-07-12T12:47:13.354Z,95711.08
2018-07-12T12:49:42.789Z,95715.03
2018-07-12T12:52:12.185Z,95718.95
2018-07-12T12:54:41.525Z,95709.97
2018-07-12T12:57:10.949Z,95716.89
2018-07-12T12:59:40.361Z,95718.03
2018-07-12T13:02:09.773Z,95711.53
2018-07-12T13:04:39.279Z,95716.36
2018-07-12T13:07:08.676Z,95714.05
2018-07-12T13:09:38.532Z,95721.65
2018-07-12T13:12:07.935Z,95717.75
2018-07-12T13:14:37.287Z,95716.11
2018-07-12T13:17:06.829Z,95716.44
2018-07-12T13:19:36.224Z,95717.58
2018-07-12T13:22:05.601Z,95723.50
2018-07-12T13:24:34.955Z,95718.03
2018-07-12T13:27:04.321Z,95715.59
2018-07-12T13:29:33.789Z,95715.14
2018-07-12T13:32:03.194Z,95721.76
2018-07-12T13:34:32.272Z,95724.03
2018-07-12T13:37:02.787Z,95719.56
2018-07-12T13:39:32.402Z,95719.05
2018-07-12T13:42:01.761Z,95716.02
2018-07-12T13:44:31.109Z,95711.30
2018-07-12T13:47:00.263Z,95717.30
2018-07-12T13:49:29.592Z,95725.00
2018-07-12T13:51:58.992Z,95713.28
2018-07-12T13:54:28.339Z,95717.89
2018-07-12T13:56:57.719Z,95707.57
2018-07-12T13:59:27.064Z,95708.67
2018-07-12T14:01:56.450Z,95713.12
2018-07-12T14:04:25.874Z,95710.90
2018-07-12T14:06:55.383Z,95713.03
2018-07-12T14:09:25.629Z,95708.63
2018-07-12T14:11:55.106Z,95707.31
2018-07-12T14:14:24.514Z,95709.63
2018-07-12T14:16:53.960Z,95701.53
2018-07-12T14:19:23.386Z,95713.03
2018-07-12T14:21:53.118Z,95701.04
2018-07-12T14:24:22.552Z,95702.56
2018-07-12T14:26:51.916Z,95697.56
2018-07-12T14:29:21.616Z,95692.42
2018-07-12T14:31:51.047Z,95708.06
2018-07-12T14:34:20.549Z,95698.70
2018-07-12T14:36:49.995Z,95694.19
2018-07-12T14:39:19.421Z,95692.77
2018-07-12T14:41:48.856Z,95696.17
2018-07-12T14:44:18.302Z,95694.81
2018-07-12T14:46:47.751Z,95691.24
2018-07-12T14:49:17.129Z,95692.17
2018-07-12T14:51:46.511Z,95696.45
2018-07-12T14:54:15.921Z,95697.98
2018-07-12T14:56:45.315Z,95692.35
2018-07-12T14:59:14.682Z,95696.88
2018-07-12T15:01:44.237Z,95708.05
2018-07-12T15:04:13.576Z,95703.70
2018-07-12T15:06:42.933Z,95697.39
2018-07-12T15:09:12.341Z,95693.25
2018-07-12T15:11:42.290Z,95690.23
2018-07-12T15:14:11.714Z,95691.38
2018-07-12T15:16:41.091Z,95684.73
2018-07-12T15:19:10.549Z,95700.13
2018-07-12T15:21:39.887Z,95692.33
2018-07-12T15:24:09.260Z,95688.77
2018-07-12T15:26:38.629Z,95695.33
2018-07-12T15:29:08.015Z,95693.31
2018-07-12T15:31:37.448Z,95688.38
2018-07-12T15:34:06.787Z,95701.84
2018-07-12T15:36:36.135Z,95697.53
2018-07-12T15:39:07.399Z,95696.30
2018-07-12T15:41:37.115Z,95688.91
2018-07-12T15:44:06.554Z,95681.79
2018-07-12T15:46:35.915Z,95681.95
2018-07-12T15:49:05.331Z,95687.63
2018-07-12T15:51:34.811Z,95682.87
2018-07-12T15:54:04.213Z,95688.25
2018-07-12T15:56:33.600Z,95688.56
2018-07-12T15:59:02.975Z,95686.55
2018-07-12T16:01:32.369Z,95692.41
2018-07-12T16:04:01.744Z,95691.55
2018-07-12T16:06:31.129Z,95691.66
2018-07-12T16:09:00.441Z,95689.89
2018-07-12T16:11:29.790Z,95694.05
2018-07-12T16:13:59.174Z,95694.66
2018-07-12T16:16:28.579Z,95692.20
2018-07-12T16:18:58.407Z,95693.23
2018-07-12T16:21:27.831Z,95700.91
2018-07-12T16:23:57.197Z,95696.02
2018-07-12T16:26:26.551Z,95699.50
2018-07-12T16:28:55.920Z,95690.84
2018-07-12T16:31:25.344Z,95692.34
2018-07-12T16:33:54.757Z,95689.78
2018-07-12T16:36:24.159Z,95694.44
2018-07-12T16:38:53.562Z,95692.59
2018-07-12T16:41:22.994Z,95695.33
2018-07-12T16:43:52.512Z,95695.89
2018-07-12T16:46:21.912Z,95699.23
2018-07-12T16:48:51.742Z,95702.06
2018-07-12T16:51:21.217Z,95704.20
2018-07-12T16:53:50.811Z,95702.28
2018-07-12T16:56:20.196Z,95708.53
2018-07-12T16:58:49.557Z,95703.97
2018-07-12T17:01:19.063Z,95709.15
2018-07-12T17:03:48.525Z,95701.87
2018-07-12T17:06:17.900Z,95704.45
2018-07-12T17:08:47.346Z,95706.03
2018-07-12T17:11:16.710Z,95706.61
2018-07-12T17:13:46.104Z,95707.30
2018-07-12T17:16:15.989Z,95706.76
2018-07-12T17:18:45.720Z,95709.33
2018-07-12T17:21:15.100Z,95711.09
2018-07-12T17:23:44.501Z,95716.84
2018-07-12T17:26:13.953Z,95714.52
2018-07-12T17:28:43.373Z,95714.92
2018-07-12T17:31:12.773Z,95719.33
2018-07-12T17:33:42.158Z,95728.27
2018-07-12T17:36:11.584Z,95723.31
2018-07-12T17:38:41.054Z,95721.21
2018-07-12T17:41:10.557Z,95725.91
2018-07-12T17:43:40.254Z,95725.70
2018-07-12T17:46:09.666Z,95726.25
2018-07-12T17:48:39.046Z,95727.94
2018-07-12T17:51:08.668Z,95734.25
2018-07-12T17:53:38.081Z,95729.07
2018-07-12T17:56:07.601Z,95730.72
2018-07-12T17:58:37.087Z,95733.67
2018-07-12T18:01:06.646Z,95740.47
2018-07-12T18:03:36.064Z,95742.28
2018-07-12T18:06:05.448Z,95744.73
2018-07-12T18:08:34.926Z,95744.64
2018-07-12T18:11:04.321Z,95744.48
2018-07-12T18:13:33.772Z,95743.96
2018-07-12T18:16:05.514Z,95742.19
2018-07-12T18:18:35.714Z,95746.06
2018-07-12T18:21:05.170Z,95743.06
2018-07-12T18:23:34.634Z,95743.03
2018-07-12T18:26:04.034Z,95745.48
2018-07-12T18:28:33.386Z,95741.86
2018-07-12T18:31:02.712Z,95749.09
2018-07-12T18:33:32.142Z,95748.16
2018-07-12T18:36:01.536Z,95751.70
2018-07-12T18:41:31.511Z,95753.23
2018-07-12T18:44:00.901Z,95749.73
2018-07-12T18:46:30.440Z,95757.13
2018-07-12T18:48:59.936Z,95758.32
2018-07-12T18:51:30.009Z,95760.80
2018-07-12T18:53:59.618Z,95764.88
2018-07-12T18:56:29.118Z,95768.63
2018-07-12T18:58:58.720Z,95768.03
2018-07-12T19:01:29.047Z,95764.56
2018-07-12T19:03:58.712Z,95773.33
2018-07-12T19:06:28.383Z,95773.13
2018-07-12T19:08:57.878Z,95773.55
2018-07-12T19:11:27.341Z,95779.06
2018-07-12T19:13:56.794Z,95778.63
2018-07-12T19:16:27.372Z,95784.66
2018-07-12T19:18:56.753Z,95786.02
2018-07-12T19:21:26.185Z,95791.73
2018-07-12T19:23:55.703Z,95794.80
2018-07-12T19:26:25.131Z,95793.32
2018-07-12T19:28:54.536Z,95791.75
2018-07-12T19:31:23.979Z,95796.47
2018-07-12T19:33:53.385Z,95799.77
2018-07-12T19:36:22.842Z,95802.56
2018-07-12T19:38:52.291Z,95813.45
2018-07-12T19:41:21.670Z,95815.72
2018-07-12T19:43:51.195Z,95823.44
2018-07-12T19:46:20.611Z,95821.41
2018-07-12T19:48:50.182Z,95817.15
2018-07-12T19:51:19.612Z,95819.09
2018-07-12T19:53:49.123Z,95824.83
2018-07-12T19:56:18.626Z,95822.20
2018-07-12T19:58:48.252Z,95825.51
2018-07-12T20:01:17.734Z,95825.58
2018-07-12T20:03:48.320Z,95827.29
2018-07-12T20:06:17.808Z,95826.26
2018-07-12T20:08:47.286Z,95829.04
2018-07-12T20:11:16.758Z,95830.44
2018-07-12T20:13:46.331Z,95823.94
2018-07-12T20:16:15.899Z,95831.87
2018-07-12T20:18:45.349Z,95830.06
2018-07-12T20:21:15.018Z,95834.17
2018-07-12T20:23:44.578Z,95833.43
2018-07-12T20:26:14.171Z,95830.77
2018-07-12T20:28:43.766Z,95829.17
2018-07-12T20:31:13.493Z,95833.23
2018-07-12T20:33:42.945Z,95834.32
2018-07-12T20:36:12.676Z,95832.97
2018-07-12T20:38:42.431Z,95840.28
2018-07-12T20:41:12.053Z,95833.81
2018-07-12T20:43:41.295Z,95837.34
2018-07-12T20:46:10.961Z,95841.63
2018-07-12T20:48:41.159Z,95797.74
2018-07-12T20:51:11.268Z,95848.36
2018-07-12T20:53:41.223Z,95844.06
2018-07-12T20:56:10.731Z,95842.41
2018-07-12T20:58:40.317Z,95848.05
2018-07-12T21:01:09.890Z,95841.05
2018-07-12T21:03:39.361Z,95848.13
2018-07-12T21:06:08.895Z,95849.67
2018-07-12T21:08:38.541Z,95850.22
2018-07-12T21:11:07.967Z,95854.05
2018-07-12T21:13:37.462Z,95855.94
2018-07-12T21:16:06.991Z,95850.56
2018-07-12T21:18:36.509Z,95850.02
2018-07-12T21:21:06.168Z,95850.30
2018-07-12T21:23:35.988Z,95855.21
2018-07-12T21:26:05.431Z,95850.11
2018-07-12T21:28:34.810Z,95854.16
2018-07-12T21:31:04.827Z,95853.66
2018-07-12T21:33:34.439Z,95851.50
2018-07-12T21:36:03.828Z,95862.60
2018-07-12T21:38:33.290Z,95859.12
2018-07-12T21:41:02.801Z,95864.03
2018-07-12T21:43:32.374Z,95861.67
2018-07-12T21:46:02.023Z,95863.63
2018-07-12T21:48:31.494Z,95865.53
2018-07-12T21:51:01.305Z,95874.80
2018-07-12T21:53:30.797Z,95875.11
2018-07-12T21:56:00.322Z,95875.18
2018-07-12T21:58:29.871Z,95875.96
2018-07-12T22:00:59.483Z,95874.41
2018-07-12T22:03:28.934Z,95877.15
2018-07-12T22:05:58.425Z,95880.97
2018-07-12T22:08:28.751Z,95876.41
2018-07-12T22:11:00.010Z,95879.65
2018-07-12T22:13:29.801Z,95879.45
2018-07-12T22:15:59.281Z,95872.95
2018-07-12T22:18:28.728Z,95877.63
2018-07-12T22:20:58.302Z,95878.98
2018-07-12T22:23:27.948Z,95882.73
2018-07-12T22:25:57.492Z,95878.40
2018-07-12T22:28:27.536Z,95876.13
2018-07-12T22:30:57.139Z,95883.67
2018-07-12T22:33:26.567Z,95878.33
2018-07-12T22:35:56.361Z,95874.61
2018-07-12T22:38:26.032Z,95878.20
2018-07-12T22:40:55.531Z,95876.64
2018-07-12T22:43:24.934Z,95877.48
2018-07-12T22:45:54.536Z,95873.77
2018-07-12T22:48:24.537Z,95870.82
2018-07-12T22:50:53.752Z,95874.16
2018-07-12T22:53:23.085Z,95875.55
2018-07-12T22:55:52.633Z,95876.69
2018-07-12T22:58:22.101Z,95874.56
2018-07-12T23:00:51.541Z,95875.70
2018-07-12T23:03:20.983Z,95869.78
2018-07-12T23:05:50.401Z,95871.67
2018-07-12T23:08:21.915Z,95871.41
2018-07-12T23:10:51.436Z,95870.11
2018-07-12T23:13:21.137Z,95865.55
2018-07-12T23:15:50.584Z,95871.50
2018-07-12T23:18:20.000Z,95867.71
2018-07-12T23:20:50.421Z,95866.81
2018-07-12T23:23:19.821Z,95868.49
2018-07-12T23:25:49.268Z,95864.23
2018-07-12T23:28:18.693Z,95866.94
2018-07-12T23:30:48.165Z,95865.31
2018-07-12T23:33:17.577Z,95866.72
2018-07-12T23:35:47.037Z,95868.10
2018-07-12T23:38:16.610Z,95871.08
2018-07-12T23:40:46.015Z,95868.97
2018-07-12T23:43:15.411Z,95860.89
2018-07-12T23:45:44.806Z,95864.73
2018-07-12T23:48:14.244Z,95869.11
2018-07-12T23:50:43.700Z,95862.92
2018-07-12T23:53:13.178Z,95864.30
2018-07-12T23:55:42.606Z,95873.52
2018-07-12T23:58:12.023Z,95871.39
